Time;durP1;ratioP1;P1;durP2;ratioP2;P2;SDS_P1;SDS_P2;PMS_P1;PMS_P2;Temp;Humidity;BMP_temperature;BMP_pressure;BME280_temperature;BME280_humidity;BME280_pressure;Samples;Min_cycle;Max_cycle;Signal;HPM_P1;HPM_P2
2023/03/24 00:01:03;;;;;;;3.13;2.43;;;13.10;99.90;;;;;;5055858;28;20805;-87
2023/03/24 00:03:29;;;;;;;2.13;1.90;;;13.00;99.90;;;;;;5054005;28;20411;-89
2023/03/24 00:06:00;;;;;;;3.10;2.20;;;13.10;99.90;;;;;;5054505;28;20460;-88
2023/03/24 00:08:36;;;;;;;3.30;2.30;;;13.10;99.90;;;;;;5054694;28;20445;-87
2023/03/24 00:11:08;;;;;;;2.70;2.50;;;13.10;99.90;;;;;;5020950;28;20431;-89
2023/03/24 00:13:37;;;;;;;2.63;2.43;;;13.10;99.90;;;;;;5053649;28;20460;-88
2023/03/24 00:16:09;;;;;;;3.10;2.50;;;13.00;99.90;;;;;;5053590;28;20644;-89
2023/03/24 00:18:36;;;;;;;4.40;1.93;;;13.00;99.90;;;;;;5037213;28;20512;-88
2023/03/24 00:21:03;;;;;;;2.57;2.00;;;13.00;99.90;;;;;;5053994;28;20417;-88
2023/03/24 00:23:35;;;;;;;3.77;2.27;;;13.00;99.90;;;;;;5054853;28;20417;-89
2023/03/24 00:26:04;;;;;;;2.70;2.47;;;13.00;99.90;;;;;;5046966;28;20806;-87
2023/03/24 00:28:33;;;;;;;3.20;2.20;;;13.00;99.90;;;;;;5034446;28;20466;-88
2023/03/24 00:31:03;;;;;;;3.07;2.10;;;13.00;99.90;;;;;;5037062;28;20585;-88
2023/03/24 00:33:34;;;;;;;6.00;2.50;;;13.00;99.90;;;;;;5035787;28;20803;-88
2023/03/24 00:36:10;;;;;;;3.13;2.13;;;13.00;99.90;;;;;;5039984;28;20448;-88
2023/03/24 00:38:40;;;;;;;3.17;2.37;;;13.00;99.90;;;;;;5053494;28;20462;-87
2023/03/24 00:41:12;;;;;;;2.33;2.13;;;13.00;99.90;;;;;;5053804;28;20453;-88
2023/03/24 00:43:42;;;;;;;3.00;2.33;;;13.00;99.90;;;;;;5037214;28;20437;-89
2023/03/24 00:46:27;;;;;;;5.20;2.10;;;13.00;99.90;;;;;;5068992;28;21155;-70
2023/03/24 00:49:01;;;;;;;2.53;2.10;;;13.00;99.90;;;;;;5068871;28;20390;-70
2023/03/24 00:51:30;;;;;;;2.60;2.00;;;13.00;99.90;;;;;;5066968;28;20509;-70
2023/03/24 00:53:56;;;;;;;2.40;2.20;;;13.00;99.90;;;;;;5048894;28;20500;-70
2023/03/24 00:56:25;;;;;;;3.07;2.30;;;13.00;99.90;;;;;;5047844;28;20395;-70
2023/03/24 00:58:56;;;;;;;4.20;2.50;;;13.00;99.90;;;;;;5031714;28;20422;-70
2023/03/24 01:01:31;;;;;;;4.60;2.23;;;13.00;99.90;;;;;;5014998;28;20471;-69
2023/03/24 01:03:59;;;;;;;2.50;2.20;;;13.00;99.90;;;;;;5014778;28;20418;-70
2023/03/24 01:06:29;;;;;;;3.70;1.97;;;13.00;99.90;;;;;;5048869;28;20501;-69
2023/03/24 01:08:55;;;;;;;2.13;1.93;;;13.00;99.90;;;;;;5051115;28;20504;-70
2023/03/24 01:11:33;;;;;;;3.03;2.07;;;13.00;99.90;;;;;;5051270;28;20434;-70
2023/03/24 01:14:02;;;;;;;4.30;3.03;;;13.00;99.90;;;;;;5067111;28;20390;-70
2023/03/24 01:16:29;;;;;;;3.13;2.27;;;13.00;99.90;;;;;;5033832;28;20470;-70
2023/03/24 01:18:58;;;;;;;2.70;2.20;;;13.00;99.90;;;;;;5064739;28;20430;-70
2023/03/24 01:21:24;;;;;;;2.70;2.13;;;13.00;99.90;;;;;;5050772;28;20742;-70
2023/03/24 01:23:53;;;;;;;2.83;2.10;;;13.00;99.90;;;;;;5067303;28;20447;-70
2023/03/24 01:26:21;;;;;;;3.10;2.70;;;13.00;99.90;;;;;;5067114;28;20921;-70
2023/03/24 01:28:47;;;;;;;3.73;2.50;;;13.00;99.90;;;;;;5049819;28;20834;-70
2023/03/24 01:31:16;;;;;;;2.87;2.37;;;13.00;99.90;;;;;;5064001;28;20512;-70
2023/03/24 01:33:42;;;;;;;4.00;2.13;;;13.00;99.90;;;;;;5046949;28;20488;-70
2023/03/24 01:36:11;;;;;;;2.40;2.13;;;13.00;99.90;;;;;;5048441;28;20411;-70
2023/03/24 01:38:37;;;;;;;3.50;2.10;;;13.00;99.90;;;;;;5065410;28;20443;-70
2023/03/24 01:41:05;;;;;;;3.57;2.40;;;13.00;99.90;;;;;;5066761;28;20495;-70
2023/03/24 01:43:35;;;;;;;2.67;2.00;;;13.00;99.90;;;;;;5067845;28;20437;-70
2023/03/24 01:46:22;;;;;;;3.40;2.40;;;13.00;99.90;;;;;;5033585;28;20659;-70
2023/03/24 01:48:57;;;;;;;2.90;2.37;;;13.00;99.90;;;;;;5042552;28;20786;-70
2023/03/24 01:51:34;;;;;;;2.83;2.10;;;12.90;99.90;;;;;;5030309;28;20415;-70
2023/03/24 01:54:21;;;;;;;3.90;2.33;;;13.00;99.90;;;;;;5046727;28;20909;-71
2023/03/24 01:57:12;;;;;;;2.83;2.60;;;13.00;99.90;;;;;;5038443;28;20494;-70
2023/03/24 01:59:48;;;;;;;3.07;2.30;;;12.90;99.90;;;;;;5033224;28;20432;-70
2023/03/24 02:02:35;;;;;;;2.97;2.20;;;12.90;99.90;;;;;;5036864;28;21042;-70
2023/03/24 02:05:10;;;;;;;2.70;2.50;;;12.90;99.90;;;;;;5016891;28;20562;-71
2023/03/24 02:08:35;;;;;;;5.20;2.50;;;12.90;99.90;;;;;;5024296;28;20437;-70
2023/03/24 02:11:30;;;;;;;3.33;2.63;;;12.90;99.90;;;;;;4999532;28;20544;-70
2023/03/24 02:13:59;;;;;;;4.97;2.60;;;12.90;99.90;;;;;;5033220;28;20536;-70
2023/03/24 02:16:36;;;;;;;3.07;2.70;;;12.90;99.90;;;;;;5016542;28;20401;-70
2023/03/24 02:19:36;;;;;;;2.90;2.50;;;13.00;99.90;;;;;;5016360;28;20508;-70
2023/03/24 02:22:25;;;;;;;3.50;2.70;;;12.90;99.90;;;;;;5016796;28;20439;-70
2023/03/24 02:24:54;;;;;;;2.60;2.40;;;12.90;99.90;;;;;;5032606;28;20447;-70
2023/03/24 02:27:47;;;;;;;2.90;2.60;;;12.90;99.90;;;;;;5033842;28;20483;-70
2023/03/24 02:30:46;;;;;;;3.10;2.47;;;12.90;99.90;;;;;;5032795;28;20427;-70
2023/03/24 02:33:31;;;;;;;3.37;2.60;;;12.90;99.90;;;;;;5017349;28;20434;-70
2023/03/24 02:36:11;;;;;;;3.60;2.70;;;12.90;99.90;;;;;;5052567;28;20408;-70
2023/03/24 02:39:16;;;;;;;3.87;2.63;;;12.90;99.90;;;;;;5035494;28;20456;-71
2023/03/24 02:42:22;;;;;;;4.07;2.87;;;12.90;99.90;;;;;;5031431;28;20547;-70
2023/03/24 02:45:11;;;;;;;2.53;2.33;;;12.90;99.90;;;;;;5015925;28;20456;-71
2023/03/24 02:48:08;;;;;;;4.23;3.10;;;12.90;99.90;;;;;;5016113;28;20453;-71
2023/03/24 02:50:43;;;;;;;3.20;2.80;;;12.90;99.90;;;;;;5015833;28;20511;-71
2023/03/24 02:53:36;;;;;;;5.43;3.23;;;12.90;99.90;;;;;;5016139;28;20817;-71
2023/03/24 02:56:50;;;;;;;3.03;2.70;;;12.90;99.90;;;;;;5051988;28;20415;-71
2023/03/24 02:59:56;;;;;;;2.50;2.30;;;12.90;99.90;;;;;;5053349;28;20451;-71
2023/03/24 03:03:13;;;;;;;4.00;2.60;;;12.90;99.90;;;;;;5046192;28;20432;-71
2023/03/24 03:06:03;;;;;;;3.83;2.70;;;12.90;99.90;;;;;;5031997;28;20445;-71
2023/03/24 03:08:32;;;;;;;4.00;2.90;;;12.90;99.90;;;;;;5047991;28;20445;-71
2023/03/24 03:11:02;;;;;;;3.13;2.67;;;12.90;99.90;;;;;;5053326;28;20960;-70
2023/03/24 03:13:35;;;;;;;5.33;3.27;;;12.90;99.90;;;;;;5052042;28;20552;-71
2023/03/24 03:16:10;;;;;;;3.53;2.63;;;12.90;99.90;;;;;;5052024;28;20427;-71
2023/03/24 03:18:49;;;;;;;4.50;3.43;;;12.90;99.90;;;;;;5052427;28;20423;-71
2023/03/24 03:21:21;;;;;;;3.90;3.17;;;13.00;99.90;;;;;;5034929;28;20863;-70
2023/03/24 03:24:04;;;;;;;4.03;2.93;;;13.00;99.90;;;;;;5052274;28;20429;-71
2023/03/24 03:26:31;;;;;;;3.97;3.57;;;13.00;99.90;;;;;;5051584;28;20842;-71
2023/03/24 03:29:08;;;;;;;4.07;3.20;;;12.90;99.90;;;;;;5035207;28;20960;-70
2023/03/24 03:31:48;;;;;;;3.97;3.10;;;13.00;99.90;;;;;;5034961;28;20402;-71
2023/03/24 03:34:44;;;;;;;3.80;2.90;;;13.00;99.90;;;;;;5034263;28;20425;-71
2023/03/24 03:37:16;;;;;;;4.63;2.87;;;13.00;99.90;;;;;;5016547;28;21023;-71
2023/03/24 03:39:51;;;;;;;3.50;2.90;;;13.00;99.90;;;;;;5031267;28;20537;-71
2023/03/24 03:42:20;;;;;;;7.30;3.60;;;13.00;99.90;;;;;;5031359;28;20492;-71
2023/03/24 03:44:49;;;;;;;4.10;3.70;;;13.00;99.90;;;;;;5032568;28;20814;-71
2023/03/24 03:47:21;;;;;;;3.87;3.40;;;13.00;99.90;;;;;;5031707;28;20480;-71
2023/03/24 03:49:49;;;;;;;5.17;2.70;;;13.00;99.90;;;;;;5014860;28;20989;-71
2023/03/24 03:52:18;;;;;;;3.20;2.80;;;13.00;99.90;;;;;;5034533;28;20423;-71
2023/03/24 03:54:46;;;;;;;3.43;3.13;;;13.00;99.90;;;;;;5034852;28;20406;-71
2023/03/24 03:57:20;;;;;;;3.73;3.40;;;13.00;99.90;;;;;;5051224;28;20434;-71
2023/03/24 04:00:14;;;;;;;3.00;2.57;;;13.10;99.90;;;;;;5031194;28;20443;-71
2023/03/24 04:03:14;;;;;;;5.07;3.47;;;13.10;99.90;;;;;;5030966;28;20525;-71
2023/03/24 04:05:50;;;;;;;3.67;3.10;;;13.10;99.90;;;;;;5033829;28;20816;-70
2023/03/24 04:08:38;;;;;;;3.23;2.53;;;13.10;99.90;;;;;;5050866;28;20433;-70
2023/03/24 04:11:45;;;;;;;3.47;3.17;;;13.10;99.90;;;;;;5059013;28;20615;-70
2023/03/24 04:14:56;;;;;;;3.13;2.83;;;13.10;99.90;;;;;;5057048;28;20461;-70
2023/03/24 04:17:49;;;;;;;3.10;2.80;;;13.10;99.90;;;;;;5050811;28;20430;-70
2023/03/24 04:20:45;;;;;;;4.20;3.23;;;13.10;99.90;;;;;;5050361;28;20446;-70
2023/03/24 04:23:25;;;;;;;4.80;3.10;;;13.10;99.90;;;;;;5033957;28;20510;-70
2023/03/24 04:25:57;;;;;;;3.93;2.73;;;13.10;99.90;;;;;;5033188;28;20484;-70
2023/03/24 04:28:59;;;;;;;3.60;3.07;;;13.10;99.90;;;;;;5031093;28;20533;-71
2023/03/24 04:31:48;;;;;;;4.67;3.33;;;13.10;99.90;;;;;;4997762;28;20457;-72
2023/03/24 04:34:40;;;;;;;3.50;3.20;;;13.10;99.90;;;;;;5030445;28;20407;-71
2023/03/24 04:37:24;;;;;;;3.77;3.43;;;13.10;99.90;;;;;;5027023;28;20460;-71
2023/03/24 04:40:16;;;;;;;6.43;3.20;;;13.10;99.90;;;;;;5033989;28;20436;-71
2023/03/24 04:42:51;;;;;;;6.03;2.93;;;13.10;99.90;;;;;;5051571;28;20872;-71
2023/03/24 04:45:24;;;;;;;3.80;3.33;;;13.00;99.90;;;;;;5045667;28;20556;-70
2023/03/24 04:48:19;;;;;;;3.57;3.07;;;13.10;99.90;;;;;;5033878;28;20422;-71
2023/03/24 04:51:14;;;;;;;4.77;3.93;;;13.10;99.90;;;;;;5049948;28;20437;-71
2023/03/24 04:54:03;;;;;;;4.90;3.10;;;13.10;99.90;;;;;;5051441;28;20425;-71
2023/03/24 04:56:46;;;;;;;3.83;2.90;;;13.10;99.90;;;;;;5033073;28;20438;-71
2023/03/24 04:59:24;;;;;;;5.00;3.30;;;13.00;99.90;;;;;;5030105;28;20447;-71
2023/03/24 05:01:51;;;;;;;2.67;2.47;;;13.00;99.90;;;;;;5030403;28;20409;-71
2023/03/24 05:04:29;;;;;;;5.10;3.40;;;13.00;99.90;;;;;;4999082;28;20480;-71
2023/03/24 05:07:02;;;;;;;6.57;2.40;;;13.00;99.90;;;;;;5014526;28;20443;-70
2023/03/24 05:09:34;;;;;;;3.80;2.90;;;13.00;99.90;;;;;;5030324;28;20442;-71
2023/03/24 05:12:03;;;;;;;3.10;2.40;;;13.00;99.90;;;;;;5013550;28;20457;-70
2023/03/24 05:14:38;;;;;;;2.90;2.57;;;13.00;99.90;;;;;;5030317;28;20819;-71
2023/03/24 05:17:08;;;;;;;2.47;2.27;;;13.00;99.90;;;;;;5048550;28;20788;-71
2023/03/24 05:19:36;;;;;;;3.50;2.23;;;13.00;99.90;;;;;;5032933;28;20949;-71
2023/03/24 05:22:02;;;;;;;2.87;2.43;;;13.00;99.90;;;;;;5033513;28;20519;-71
2023/03/24 05:24:30;;;;;;;3.50;2.57;;;13.00;99.90;;;;;;5023313;28;20474;-71
2023/03/24 05:26:56;;;;;;;2.63;2.30;;;13.00;99.90;;;;;;5019820;28;20460;-71
2023/03/24 05:29:24;;;;;;;3.10;2.20;;;13.00;99.90;;;;;;5031013;28;20871;-71
2023/03/24 05:31:50;;;;;;;2.97;2.10;;;13.00;99.90;;;;;;5015419;28;20955;-71
2023/03/24 05:34:18;;;;;;;3.33;2.30;;;13.00;99.90;;;;;;5017323;28;20534;-70
2023/03/24 05:36:59;;;;;;;3.33;2.40;;;13.00;99.90;;;;;;5022139;28;20406;-71
2023/03/24 05:39:25;;;;;;;5.53;2.17;;;12.90;99.90;;;;;;5048206;28;20436;-71
2023/03/24 05:42:07;;;;;;;2.50;2.20;;;12.90;99.90;;;;;;5052125;28;20461;-71
2023/03/24 05:44:35;;;;;;;3.60;2.40;;;12.90;99.90;;;;;;5033134;28;20470;-71
2023/03/24 05:47:11;;;;;;;2.90;2.47;;;12.90;99.90;;;;;;5037738;28;20448;-71
2023/03/24 05:49:37;;;;;;;3.40;1.80;;;12.90;99.90;;;;;;5034798;28;20610;-71
2023/03/24 05:52:04;;;;;;;5.17;2.33;;;12.90;99.90;;;;;;5034002;28;20528;-71
2023/03/24 05:54:33;;;;;;;4.03;2.20;;;12.90;99.90;;;;;;5001869;28;20898;-71
2023/03/24 05:57:13;;;;;;;3.80;2.20;;;12.90;99.90;;;;;;5032052;28;20421;-70
2023/03/24 06:00:16;;;;;;;3.63;2.20;;;12.90;99.90;;;;;;5052668;28;20522;-70
2023/03/24 06:03:00;;;;;;;6.53;2.33;;;12.90;99.90;;;;;;5033250;28;20448;-71
2023/03/24 06:05:54;;;;;;;2.77;2.07;;;12.80;99.90;;;;;;5052135;28;20506;-70
2023/03/24 06:08:23;;;;;;;2.23;1.67;;;12.80;99.90;;;;;;5040980;28;20960;-70
2023/03/24 06:10:52;;;;;;;3.00;1.97;;;12.80;99.90;;;;;;5044236;28;20448;-70
2023/03/24 06:13:18;;;;;;;2.10;1.70;;;12.80;99.90;;;;;;5052324;28;20433;-71
2023/03/24 06:15:46;;;;;;;3.87;1.73;;;12.80;99.90;;;;;;5034362;28;20449;-71
2023/03/24 06:18:27;;;;;;;2.27;1.60;;;12.70;99.90;;;;;;5034074;28;20444;-71
2023/03/24 06:20:57;;;;;;;4.83;1.77;;;12.70;99.90;;;;;;5013400;28;20545;-70
2023/03/24 06:23:28;;;;;;;2.80;1.60;;;12.70;99.90;;;;;;5037693;28;20939;-74
2023/03/24 06:26:11;;;;;;;4.10;1.90;;;12.70;99.90;;;;;;5055250;28;20442;-72
2023/03/24 06:28:50;;;;;;;7.70;2.23;;;12.70;99.90;;;;;;5051113;28;20439;-71
2023/03/24 06:31:20;;;;;;;5.40;2.20;;;12.70;99.90;;;;;;5034428;28;20410;-71
2023/03/24 06:33:49;;;;;;;7.80;1.90;;;12.70;99.90;;;;;;5017932;28;20902;-73
2023/03/24 06:36:17;;;;;;;3.50;1.83;;;12.60;99.90;;;;;;5033793;28;20529;-70
2023/03/24 06:38:44;;;;;;;5.40;2.00;;;12.60;99.90;;;;;;5017295;28;20411;-68
2023/03/24 06:41:15;;;;;;;2.43;1.50;;;12.60;99.90;;;;;;5020710;28;20529;-71
2023/03/24 06:43:41;;;;;;;8.50;1.90;;;12.60;99.90;;;;;;5033893;28;20414;-71
2023/03/24 06:46:10;;;;;;;4.70;2.17;;;12.60;99.90;;;;;;5033816;28;20505;-71
2023/03/24 06:48:38;;;;;;;6.10;1.87;;;12.60;99.90;;;;;;5001767;28;20898;-71
2023/03/24 06:51:10;;;;;;;10.73;2.53;;;12.60;99.90;;;;;;5017521;28;20491;-71
2023/03/24 06:53:40;;;;;;;6.73;2.13;;;12.60;99.90;;;;;;5034783;28;20934;-73
2023/03/24 06:56:08;;;;;;;6.93;3.00;;;12.60;99.90;;;;;;5041397;28;20473;-72
2023/03/24 06:58:43;;;;;;;5.90;2.03;;;12.60;99.90;;;;;;5033609;28;20881;-72
2023/03/24 07:01:15;;;;;;;8.90;2.20;;;12.60;99.90;;;;;;5017321;28;20421;-71
2023/03/24 07:04:00;;;;;;;4.80;2.30;;;12.60;99.90;;;;;;5034637;28;20475;-72
2023/03/24 07:06:41;;;;;;;9.23;2.67;;;12.60;99.90;;;;;;5033482;28;20417;-72
2023/03/24 07:09:12;;;;;;;5.13;1.90;;;12.60;99.90;;;;;;5034427;28;20489;-74
2023/03/24 07:11:39;;;;;;;5.70;3.43;;;12.50;99.90;;;;;;5034719;28;20484;-74
2023/03/24 07:14:06;;;;;;;3.40;2.03;;;12.50;99.90;;;;;;5016634;28;20456;-74
2023/03/24 07:16:33;;;;;;;6.10;2.20;;;12.60;99.90;;;;;;5039590;28;20448;-72
2023/03/24 07:19:12;;;;;;;6.40;2.23;;;12.60;99.90;;;;;;5035769;28;20445;-72
2023/03/24 07:21:40;;;;;;;6.10;2.10;;;12.50;99.90;;;;;;5036327;28;20439;-72
2023/03/24 07:24:06;;;;;;;8.50;2.47;;;12.50;99.90;;;;;;5016390;28;20432;-76
2023/03/24 07:26:41;;;;;;;8.30;2.43;;;12.50;99.90;;;;;;5033247;28;20403;-72
2023/03/24 07:29:18;;;;;;;4.53;1.90;;;12.50;99.90;;;;;;5034296;28;20446;-71
2023/03/24 07:32:01;;;;;;;4.90;2.07;;;12.50;99.90;;;;;;5037722;28;20435;-73
2023/03/24 07:34:27;;;;;;;4.80;2.10;;;12.50;99.90;;;;;;5015755;28;20831;-74
2023/03/24 07:36:55;;;;;;;6.60;2.63;;;12.50;99.90;;;;;;5014792;28;20466;-73
2023/03/24 07:39:23;;;;;;;9.67;2.27;;;12.50;99.90;;;;;;5016460;28;20556;-74
2023/03/24 07:41:50;;;;;;;5.07;2.40;;;12.50;99.90;;;;;;5016459;28;20523;-74
2023/03/24 07:44:40;;;;;;;5.83;2.00;;;12.50;99.90;;;;;;5003121;28;20478;-74
2023/03/24 07:47:06;;;;;;;6.73;2.00;;;12.50;99.90;;;;;;5022840;28;20428;-75
2023/03/24 07:49:32;;;;;;;5.20;2.47;;;12.50;99.90;;;;;;5036035;28;20443;-74
2023/03/24 07:52:11;;;;;;;9.17;2.00;;;12.50;99.90;;;;;;5052525;28;20452;-74
2023/03/24 07:54:43;;;;;;;3.27;1.80;;;12.50;99.90;;;;;;5035272;28;20418;-75
2023/03/24 07:57:13;;;;;;;6.47;1.87;;;12.50;99.90;;;;;;5031353;28;20504;-72
2023/03/24 07:59:39;;;;;;;5.33;2.23;;;12.50;99.90;;;;;;5045992;28;20469;-73
2023/03/24 08:02:26;;;;;;;4.83;1.93;;;12.50;99.90;;;;;;5040923;28;20934;-73
2023/03/24 08:05:05;;;;;;;4.20;1.90;;;12.60;99.90;;;;;;5033394;28;20444;-73
2023/03/24 08:07:43;;;;;;;3.00;1.50;;;12.60;99.90;;;;;;5032114;28;20419;-73
2023/03/24 08:10:19;;;;;;;4.60;1.87;;;12.60;99.90;;;;;;5041863;28;20506;-73
2023/03/24 08:12:47;;;;;;;7.80;2.10;;;12.60;99.90;;;;;;5035193;28;20410;-73
2023/03/24 08:15:14;;;;;;;5.40;1.63;;;12.60;99.90;;;;;;5015465;28;20442;-73
2023/03/24 08:17:40;;;;;;;6.77;2.10;;;12.60;99.90;;;;;;5032839;28;20401;-72
2023/03/24 08:20:13;;;;;;;6.33;1.70;;;12.60;99.90;;;;;;5050627;28;20446;-73
2023/03/24 08:22:48;;;;;;;8.47;1.70;;;12.60;99.90;;;;;;5043120;28;22200;-73
2023/03/24 08:25:17;;;;;;;4.93;1.97;;;12.60;99.90;;;;;;5009716;28;20476;-70
2023/03/24 08:27:43;;;;;;;4.83;1.50;;;12.60;99.90;;;;;;5036739;28;20429;-73
2023/03/24 08:30:15;;;;;;;5.60;1.70;;;12.60;99.90;;;;;;5047411;28;20462;-73
2023/03/24 08:32:50;;;;;;;6.90;2.50;;;12.60;99.90;;;;;;5046137;28;20468;-73
2023/03/24 08:35:25;;;;;;;5.97;2.13;;;12.70;99.90;;;;;;5039068;28;20439;-73
2023/03/24 08:37:54;;;;;;;6.93;2.30;;;12.70;99.90;;;;;;5023001;28;20797;-73
2023/03/24 08:40:22;;;;;;;8.17;2.77;;;12.70;99.90;;;;;;5041702;28;20499;-73
2023/03/24 08:42:51;;;;;;;6.63;2.50;;;12.70;99.90;;;;;;5040469;28;20587;-73
2023/03/24 08:45:20;;;;;;;4.87;2.10;;;12.70;99.90;;;;;;5056035;28;20688;-73
2023/03/24 08:47:50;;;;;;;7.40;2.40;;;12.70;99.90;;;;;;5047787;28;21034;-73
2023/03/24 08:50:19;;;;;;;7.83;2.90;;;12.70;99.90;;;;;;5030283;28;20439;-73
2023/03/24 08:52:50;;;;;;;8.63;2.93;;;12.70;99.90;;;;;;5019332;28;20457;-73
2023/03/24 08:55:18;;;;;;;6.60;2.60;;;12.70;99.90;;;;;;5043224;28;20941;-73
2023/03/24 08:57:44;;;;;;;8.30;2.70;;;12.70;99.90;;;;;;5040295;28;20448;-73
2023/03/24 09:00:15;;;;;;;7.03;2.43;;;12.70;99.90;;;;;;5034806;28;20450;-73
2023/03/24 09:02:42;;;;;;;6.90;2.53;;;12.70;99.90;;;;;;5022314;28;20481;-73
2023/03/24 09:05:09;;;;;;;8.20;2.50;;;12.70;99.90;;;;;;5040897;28;20468;-72
2023/03/24 09:07:37;;;;;;;11.03;2.90;;;12.70;99.90;;;;;;5045731;28;20476;-71
2023/03/24 09:10:08;;;;;;;7.80;2.43;;;12.70;99.90;;;;;;5037526;28;20470;-71
2023/03/24 09:12:35;;;;;;;11.73;3.10;;;12.70;99.90;;;;;;5020661;28;20465;-71
2023/03/24 09:15:03;;;;;;;7.93;2.43;;;12.80;99.90;;;;;;5045121;28;20492;-70
2023/03/24 09:17:32;;;;;;;11.73;2.53;;;12.80;99.90;;;;;;5047357;28;20552;-72
2023/03/24 09:20:00;;;;;;;13.13;2.50;;;12.80;99.90;;;;;;5033464;28;20733;-72
2023/03/24 09:22:27;;;;;;;7.00;2.40;;;12.80;99.90;;;;;;5021657;28;20441;-73
2023/03/24 09:24:55;;;;;;;7.00;2.90;;;12.80;99.90;;;;;;5036967;28;20630;-73
2023/03/24 09:27:22;;;;;;;13.53;2.90;;;12.80;99.90;;;;;;5051704;28;20417;-73
2023/03/24 09:29:48;;;;;;;6.63;2.43;;;12.90;99.90;;;;;;5047752;28;20490;-73
2023/03/24 09:32:16;;;;;;;6.13;2.90;;;12.90;99.90;;;;;;5037108;28;21011;-73
2023/03/24 09:34:42;;;;;;;5.33;2.00;;;12.90;99.90;;;;;;5038562;28;20511;-73
2023/03/24 09:37:08;;;;;;;16.77;3.30;;;12.90;99.90;;;;;;5040047;28;20992;-73
2023/03/24 09:39:37;;;;;;;5.43;2.70;;;12.90;99.90;;;;;;5035964;28;20461;-71
2023/03/24 09:42:05;;;;;;;7.00;2.47;;;13.00;99.90;;;;;;5029449;28;20502;-75
2023/03/24 09:44:45;;;;;;;11.30;2.77;;;13.00;99.90;;;;;;5026316;28;20458;-71
2023/03/24 09:47:29;;;;;;;6.07;2.27;;;13.00;99.90;;;;;;5036018;28;20967;-70
2023/03/24 09:50:02;;;;;;;8.47;2.47;;;13.00;99.90;;;;;;5023060;28;20482;-72
2023/03/24 09:52:46;;;;;;;8.70;2.90;;;13.00;99.90;;;;;;5033287;28;20455;-73
2023/03/24 09:55:25;;;;;;;7.17;2.43;;;13.00;99.90;;;;;;5040082;28;20439;-72
2023/03/24 09:57:57;;;;;;;12.83;2.93;;;13.10;99.90;;;;;;5034524;28;20421;-72
2023/03/24 10:00:30;;;;;;;6.73;2.50;;;13.10;99.90;;;;;;5040704;28;20941;-72
2023/03/24 10:03:13;;;;;;;7.23;2.43;;;13.10;99.90;;;;;;5031445;28;20434;-72
2023/03/24 10:06:06;;;;;;;8.83;2.70;;;13.10;99.90;;;;;;5037254;28;20470;-72
2023/03/24 10:08:40;;;;;;;11.03;2.40;;;13.10;99.90;;;;;;5023960;28;21045;-72
2023/03/24 10:11:34;;;;;;;9.70;2.77;;;13.10;99.90;;;;;;5052024;28;20985;-72
2023/03/24 10:14:20;;;;;;;9.20;1.90;;;13.10;99.90;;;;;;5039383;28;20492;-72
2023/03/24 10:17:16;;;;;;;4.67;1.80;;;13.10;99.90;;;;;;5000781;28;20469;-72
2023/03/24 10:19:47;;;;;;;11.30;2.83;;;13.20;99.90;;;;;;5022948;28;20467;-70
2023/03/24 10:22:27;;;;;;;6.27;2.40;;;13.10;99.90;;;;;;5025018;28;20446;-74
2023/03/24 10:25:11;;;;;;;13.07;2.53;;;13.20;99.90;;;;;;5033380;28;20511;-74
2023/03/24 10:28:12;;;;;;;5.70;2.13;;;13.20;99.90;;;;;;5042947;28;20491;-73
2023/03/24 10:30:42;;;;;;;8.27;2.57;;;13.10;99.90;;;;;;5037784;28;20495;-73
2023/03/24 10:33:13;;;;;;;7.93;2.20;;;13.20;99.90;;;;;;5051455;28;20437;-72
2023/03/24 10:36:02;;;;;;;9.43;2.67;;;13.20;99.90;;;;;;5039494;28;20494;-73
2023/03/24 10:38:29;;;;;;;8.00;3.03;;;13.20;99.90;;;;;;5044992;28;20461;-68
2023/03/24 10:40:55;;;;;;;6.30;2.23;;;13.20;99.90;;;;;;5032743;28;20489;-68
2023/03/24 10:43:22;;;;;;;9.03;2.33;;;13.20;99.90;;;;;;5042371;28;20436;-67
2023/03/24 10:45:54;;;;;;;7.00;2.33;;;13.20;99.90;;;;;;5033294;28;20468;-68
2023/03/24 10:48:39;;;;;;;6.47;2.60;;;13.20;99.90;;;;;;5052234;28;20836;-68
2023/03/24 10:51:12;;;;;;;9.67;2.70;;;13.20;99.90;;;;;;5051097;28;20433;-68
2023/03/24 10:53:38;;;;;;;6.27;2.17;;;13.20;99.90;;;;;;5035499;28;21018;-68
2023/03/24 10:56:07;;;;;;;4.77;2.50;;;13.20;99.90;;;;;;5052668;28;20451;-68
2023/03/24 10:58:41;;;;;;;4.27;2.40;;;13.30;99.90;;;;;;5055152;28;20451;-68
2023/03/24 11:01:29;;;;;;;8.60;2.43;;;13.30;99.90;;;;;;5037310;28;20815;-70
2023/03/24 11:03:59;;;;;;;4.87;2.57;;;13.30;99.90;;;;;;5050088;28;20428;-70
2023/03/24 11:06:25;;;;;;;8.40;2.50;;;13.30;99.90;;;;;;5048710;28;20485;-72
2023/03/24 11:09:16;;;;;;;6.80;2.50;;;13.30;99.90;;;;;;5043627;28;20432;-69
2023/03/24 11:11:42;;;;;;;8.33;2.37;;;13.30;99.90;;;;;;5031091;28;20443;-69
2023/03/24 11:14:24;;;;;;;5.97;2.73;;;13.30;99.90;;;;;;5031634;28;20791;-69
2023/03/24 11:17:16;;;;;;;16.63;3.67;;;13.30;99.90;;;;;;5015309;28;20943;-69
2023/03/24 11:19:55;;;;;;;6.90;2.40;;;13.30;99.90;;;;;;5032457;28;21204;-69
2023/03/24 11:22:26;;;;;;;4.93;2.50;;;13.30;99.90;;;;;;5030944;28;20409;-69
2023/03/24 11:24:56;;;;;;;5.70;2.83;;;13.40;99.90;;;;;;5034912;28;20559;-69
2023/03/24 11:27:22;;;;;;;5.73;2.70;;;13.40;99.90;;;;;;5041502;28;20449;-70
2023/03/24 11:29:55;;;;;;;5.50;2.80;;;13.40;99.90;;;;;;5030342;28;20442;-71
2023/03/24 11:32:26;;;;;;;5.23;2.67;;;13.40;99.90;;;;;;5032695;28;20764;-71
2023/03/24 11:35:04;;;;;;;6.73;2.90;;;13.40;99.90;;;;;;5015191;28;20815;-71
2023/03/24 11:37:35;;;;;;;8.37;3.10;;;13.40;99.90;;;;;;5043644;28;22048;-70
2023/03/24 11:40:16;;;;;;;6.50;2.60;;;13.50;99.90;;;;;;5051055;28;20456;-70
2023/03/24 11:43:02;;;;;;;5.43;2.80;;;13.50;99.90;;;;;;5072115;28;20435;-70
2023/03/24 11:45:44;;;;;;;5.90;3.70;;;13.50;99.90;;;;;;5024029;28;20476;-69
2023/03/24 11:48:38;;;;;;;5.70;2.57;;;13.50;99.90;;;;;;5049558;28;20440;-71
2023/03/24 11:51:11;;;;;;;6.13;2.73;;;13.50;99.90;;;;;;5039715;28;20490;-68
2023/03/24 11:53:57;;;;;;;3.20;2.60;;;13.50;99.90;;;;;;5013971;28;20447;-69
2023/03/24 11:56:29;;;;;;;8.40;2.50;;;13.50;99.90;;;;;;5035372;28;20498;-69
2023/03/24 11:59:15;;;;;;;11.93;2.47;;;13.60;99.90;;;;;;5050428;28;20490;-70
2023/03/24 12:01:55;;;;;;;6.57;2.47;;;13.60;99.90;;;;;;5050184;28;20400;-68
2023/03/24 12:04:52;;;;;;;5.80;2.50;;;13.60;99.90;;;;;;5039350;28;20815;-68
2023/03/24 12:07:18;;;;;;;7.33;3.20;;;13.60;99.90;;;;;;5042049;28;20437;-68
2023/03/24 12:09:53;;;;;;;12.37;2.67;;;13.60;99.90;;;;;;5050561;28;20440;-68
2023/03/24 12:12:52;;;;;;;4.83;2.67;;;13.60;99.90;;;;;;5050917;28;20432;-67
2023/03/24 12:15:30;;;;;;;4.70;2.40;;;13.60;99.90;;;;;;5034389;28;20522;-67
2023/03/24 12:18:28;;;;;;;5.03;2.70;;;13.60;99.90;;;;;;5050522;28;20432;-67
2023/03/24 12:21:20;;;;;;;9.87;2.80;;;13.60;99.90;;;;;;5033071;28;20547;-67
2023/03/24 12:24:04;;;;;;;7.90;2.30;;;13.60;99.90;;;;;;5032193;28;20454;-67
2023/03/24 12:26:34;;;;;;;7.50;2.40;;;13.60;99.90;;;;;;5031475;28;20460;-67
2023/03/24 12:29:15;;;;;;;3.70;2.30;;;13.60;99.90;;;;;;5030314;28;20425;-67
2023/03/24 12:32:06;;;;;;;4.77;2.60;;;13.60;99.90;;;;;;5030326;28;20932;-67
2023/03/24 12:34:51;;;;;;;6.83;2.20;;;13.70;99.90;;;;;;5031396;28;20411;-67
2023/03/24 12:37:51;;;;;;;7.83;2.57;;;13.70;99.90;;;;;;5036003;28;20427;-67
2023/03/24 12:40:23;;;;;;;7.73;3.07;;;13.70;99.90;;;;;;5051262;28;20458;-67
2023/03/24 12:43:22;;;;;;;4.63;2.50;;;13.70;99.90;;;;;;5051219;28;20410;-68
2023/03/24 12:46:05;;;;;;;3.97;2.40;;;13.70;99.90;;;;;;5043624;28;20521;-68
2023/03/24 12:49:11;;;;;;;7.83;2.10;;;13.80;99.90;;;;;;5041849;28;20436;-68
2023/03/24 12:51:52;;;;;;;9.90;2.17;;;13.80;99.90;;;;;;5049704;28;20403;-68
2023/03/24 12:54:28;;;;;;;9.63;3.23;;;13.80;99.90;;;;;;5049023;28;20982;-68
2023/03/24 12:57:01;;;;;;;4.97;2.00;;;13.80;99.90;;;;;;5032464;28;20427;-68
2023/03/24 12:59:33;;;;;;;8.00;2.10;;;13.80;99.90;;;;;;5029670;28;20495;-68
2023/03/24 13:02:30;;;;;;;8.30;2.27;;;13.80;99.90;;;;;;5047134;28;20469;-69
2023/03/24 13:05:04;;;;;;;6.60;2.30;;;13.90;99.90;;;;;;5032924;28;20463;-68
2023/03/24 13:07:42;;;;;;;7.33;2.03;;;13.90;99.90;;;;;;5029231;28;20431;-68
2023/03/24 13:10:24;;;;;;;12.13;1.93;;;13.90;99.90;;;;;;4996951;28;20533;-68
2023/03/24 13:13:02;;;;;;;6.13;2.33;;;13.90;99.90;;;;;;5029372;28;20407;-68
2023/03/24 13:15:38;;;;;;;4.30;2.10;;;13.90;99.90;;;;;;5043040;28;20459;-68
2023/03/24 13:18:44;;;;;;;4.43;1.90;;;13.90;99.90;;;;;;5028921;28;20444;-68
2023/03/24 13:21:10;;;;;;;6.20;1.80;;;13.90;99.90;;;;;;5039899;28;20460;-68
2023/03/24 13:24:01;;;;;;;4.60;1.80;;;13.90;99.90;;;;;;5013391;28;20504;-69
2023/03/24 13:26:40;;;;;;;4.20;1.60;;;13.90;99.90;;;;;;5032790;28;20506;-69
2023/03/24 13:29:22;;;;;;;5.33;1.80;;;13.90;99.90;;;;;;5032801;28;20452;-68
2023/03/24 13:32:04;;;;;;;5.40;1.87;;;13.90;99.90;;;;;;5033111;28;20436;-68
2023/03/24 13:34:36;;;;;;;3.73;1.87;;;13.90;99.90;;;;;;5038521;28;20466;-69